sensor_id;sensor_type;location;lat;lon;timestamp;temperature;humidity
47226;DHT22;32965;64.142;-21.912;2023-08-30T00:02:10;12.20;99.90
47226;DHT22;32965;64.142;-21.912;2023-08-30T00:04:36;12.30;99.90
47226;DHT22;32965;64.142;-21.912;2023-08-30T00:07:02;12.30;99.90
47226;DHT22;32965;64.142;-21.912;2023-08-30T00:09:28;12.30;99.90
47226;DHT22;32965;64.142;-21.912;2023-08-30T00:11:54;12.30;99.90
47226;DHT22;32965;64.142;-21.912;2023-08-30T00:14:20;12.30;99.90
47226;DHT22;32965;64.142;-21.912;2023-08-30T00:16:45;12.20;99.90
47226;DHT22;32965;64.142;-21.912;2023-08-30T00:19:11;12.30;99.90
47226;DHT22;32965;64.142;-21.912;2023-08-30T00:21:37;12.30;99.90
47226;DHT22;32965;64.142;-21.912;2023-08-30T00:24:03;12.20;99.90
47226;DHT22;32965;64.142;-21.912;2023-08-30T00:26:29;12.40;99.90
47226;DHT22;32965;64.142;-21.912;2023-08-30T00:28:54;12.40;99.90
47226;DHT22;32965;64.142;-21.912;2023-08-30T00:31:20;12.40;99.90
47226;DHT22;32965;64.142;-21.912;2023-08-30T00:33:47;12.40;99.90
47226;DHT22;32965;64.142;-21.912;2023-08-30T00:36:13;12.30;99.90
47226;DHT22;32965;64.142;-21.912;2023-08-30T00:38:39;12.30;99.90
47226;DHT22;32965;64.142;-21.912;2023-08-30T00:41:05;12.20;99.90
47226;DHT22;32965;64.142;-21.912;2023-08-30T00:43:31;12.10;99.90
47226;DHT22;32965;64.142;-21.912;2023-08-30T00:45:57;12.00;99.90
47226;DHT22;32965;64.142;-21.912;2023-08-30T00:48:23;12.00;99.90
47226;DHT22;32965;64.142;-21.912;2023-08-30T00:50:48;12.00;99.90
47226;DHT22;32965;64.142;-21.912;2023-08-30T00:53:15;12.00;99.90
47226;DHT22;32965;64.142;-21.912;2023-08-30T00:55:42;12.00;99.90
47226;DHT22;32965;64.142;-21.912;2023-08-30T00:58:08;12.00;99.90
47226;DHT22;32965;64.142;-21.912;2023-08-30T01:00:35;12.00;99.90
47226;DHT22;32965;64.142;-21.912;2023-08-30T01:03:01;12.00;99.90
47226;DHT22;32965;64.142;-21.912;2023-08-30T01:05:27;12.10;99.90
47226;DHT22;32965;64.142;-21.912;2023-08-30T01:07:53;12.20;99.90
47226;DHT22;32965;64.142;-21.912;2023-08-30T01:10:25;12.20;99.90
47226;DHT22;32965;64.142;-21.912;2023-08-30T01:13:01;12.20;99.90
47226;DHT22;32965;64.142;-21.912;2023-08-30T01:15:31;12.20;99.90
47226;DHT22;32965;64.142;-21.912;2023-08-30T01:17:58;12.10;99.90
47226;DHT22;32965;64.142;-21.912;2023-08-30T01:20:26;12.10;99.90
47226;DHT22;32965;64.142;-21.912;2023-08-30T01:23:01;12.10;99.90
47226;DHT22;32965;64.142;-21.912;2023-08-30T01:25:46;12.10;99.90
47226;DHT22;32965;64.142;-21.912;2023-08-30T01:28:14;12.00;99.90
47226;DHT22;32965;64.142;-21.912;2023-08-30T01:30:43;12.00;99.90
47226;DHT22;32965;64.142;-21.912;2023-08-30T01:33:11;12.00;99.90
47226;DHT22;32965;64.142;-21.912;2023-08-30T01:35:39;12.00;99.90
47226;DHT22;32965;64.142;-21.912;2023-08-30T01:38:07;12.00;99.90
47226;DHT22;32965;64.142;-21.912;2023-08-30T01:40:43;11.90;99.90
47226;DHT22;32965;64.142;-21.912;2023-08-30T01:43:09;11.90;99.90
47226;DHT22;32965;64.142;-21.912;2023-08-30T01:45:43;11.90;99.90
47226;DHT22;32965;64.142;-21.912;2023-08-30T01:48:11;11.90;99.90
47226;DHT22;32965;64.142;-21.912;2023-08-30T01:50:39;11.90;99.90
47226;DHT22;32965;64.142;-21.912;2023-08-30T01:53:07;11.90;99.90
47226;DHT22;32965;64.142;-21.912;2023-08-30T01:55:34;11.90;99.90
47226;DHT22;32965;64.142;-21.912;2023-08-30T01:58:01;11.90;99.90
47226;DHT22;32965;64.142;-21.912;2023-08-30T02:00:27;11.90;99.90
47226;DHT22;32965;64.142;-21.912;2023-08-30T02:02:52;11.80;99.90
47226;DHT22;32965;64.142;-21.912;2023-08-30T02:05:18;11.80;99.90
47226;DHT22;32965;64.142;-21.912;2023-08-30T02:08:01;11.80;99.90
47226;DHT22;32965;64.142;-21.912;2023-08-30T02:10:33;11.80;99.90
47226;DHT22;32965;64.142;-21.912;2023-08-30T02:13:00;11.70;99.90
47226;DHT22;32965;64.142;-21.912;2023-08-30T02:15:27;11.70;99.90
47226;DHT22;32965;64.142;-21.912;2023-08-30T02:17:53;11.80;99.90
47226;DHT22;32965;64.142;-21.912;2023-08-30T02:20:19;11.70;99.90
47226;DHT22;32965;64.142;-21.912;2023-08-30T02:22:45;11.70;99.90
47226;DHT22;32965;64.142;-21.912;2023-08-30T02:25:11;11.70;99.90
47226;DHT22;32965;64.142;-21.912;2023-08-30T02:27:36;11.80;99.90
47226;DHT22;32965;64.142;-21.912;2023-08-30T02:30:03;11.80;99.90
47226;DHT22;32965;64.142;-21.912;2023-08-30T02:32:29;11.80;99.90
47226;DHT22;32965;64.142;-21.912;2023-08-30T02:34:56;11.90;99.90
47226;DHT22;32965;64.142;-21.912;2023-08-30T02:37:22;11.90;99.90
47226;DHT22;32965;64.142;-21.912;2023-08-30T02:39:48;11.90;99.90
47226;DHT22;32965;64.142;-21.912;2023-08-30T02:42:14;12.00;99.90
47226;DHT22;32965;64.142;-21.912;2023-08-30T02:44:40;12.00;99.90
47226;DHT22;32965;64.142;-21.912;2023-08-30T02:47:05;11.90;99.90
47226;DHT22;32965;64.142;-21.912;2023-08-30T02:49:31;11.90;99.90
47226;DHT22;32965;64.142;-21.912;2023-08-30T02:51:57;12.00;99.90
47226;DHT22;32965;64.142;-21.912;2023-08-30T02:54:23;12.00;99.90
47226;DHT22;32965;64.142;-21.912;2023-08-30T02:56:49;12.10;99.90
47226;DHT22;32965;64.142;-21.912;2023-08-30T02:59:15;12.10;99.90
47226;DHT22;32965;64.142;-21.912;2023-08-30T03:01:41;12.10;99.90
47226;DHT22;32965;64.142;-21.912;2023-08-30T03:04:07;12.20;99.90
47226;DHT22;32965;64.142;-21.912;2023-08-30T03:06:34;12.20;99.90
47226;DHT22;32965;64.142;-21.912;2023-08-30T03:09:00;12.20;99.90
47226;DHT22;32965;64.142;-21.912;2023-08-30T03:11:26;12.30;99.90
47226;DHT22;32965;64.142;-21.912;2023-08-30T03:13:53;12.30;99.90
47226;DHT22;32965;64.142;-21.912;2023-08-30T03:16:20;12.30;99.90
47226;DHT22;32965;64.142;-21.912;2023-08-30T03:18:46;12.30;99.90
47226;DHT22;32965;64.142;-21.912;2023-08-30T03:21:13;12.30;99.90
47226;DHT22;32965;64.142;-21.912;2023-08-30T03:23:39;12.40;99.90
47226;DHT22;32965;64.142;-21.912;2023-08-30T03:26:16;12.40;99.90
47226;DHT22;32965;64.142;-21.912;2023-08-30T03:28:43;12.40;99.90
47226;DHT22;32965;64.142;-21.912;2023-08-30T03:33:42;12.00;99.90
47226;DHT22;32965;64.142;-21.912;2023-08-30T03:36:09;12.40;99.90
47226;DHT22;32965;64.142;-21.912;2023-08-30T03:38:35;12.40;99.90
47226;DHT22;32965;64.142;-21.912;2023-08-30T03:41:02;12.40;99.90
47226;DHT22;32965;64.142;-21.912;2023-08-30T03:43:29;12.50;99.90
47226;DHT22;32965;64.142;-21.912;2023-08-30T03:45:55;12.50;99.90
47226;DHT22;32965;64.142;-21.912;2023-08-30T03:48:20;12.50;99.90
47226;DHT22;32965;64.142;-21.912;2023-08-30T03:50:46;12.50;99.90
47226;DHT22;32965;64.142;-21.912;2023-08-30T03:53:12;12.60;99.90
47226;DHT22;32965;64.142;-21.912;2023-08-30T03:55:37;12.50;99.90
47226;DHT22;32965;64.142;-21.912;2023-08-30T03:58:03;12.60;99.90
47226;DHT22;32965;64.142;-21.912;2023-08-30T04:00:29;12.50;99.90
47226;DHT22;32965;64.142;-21.912;2023-08-30T04:02:55;12.50;99.90
47226;DHT22;32965;64.142;-21.912;2023-08-30T04:05:20;12.50;99.90
47226;DHT22;32965;64.142;-21.912;2023-08-30T04:07:46;12.50;99.90
47226;DHT22;32965;64.142;-21.912;2023-08-30T04:10:12;12.50;99.90
47226;DHT22;32965;64.142;-21.912;2023-08-30T04:12:38;12.50;99.90
47226;DHT22;32965;64.142;-21.912;2023-08-30T04:15:04;12.50;99.90
47226;DHT22;32965;64.142;-21.912;2023-08-30T04:17:29;12.60;99.90
47226;DHT22;32965;64.142;-21.912;2023-08-30T04:19:55;12.60;99.90
47226;DHT22;32965;64.142;-21.912;2023-08-30T04:22:21;12.60;99.90
47226;DHT22;32965;64.142;-21.912;2023-08-30T04:24:48;12.60;99.90
47226;DHT22;32965;64.142;-21.912;2023-08-30T04:27:14;12.50;99.90
47226;DHT22;32965;64.142;-21.912;2023-08-30T04:29:40;12.60;99.90
47226;DHT22;32965;64.142;-21.912;2023-08-30T04:32:06;12.50;99.90
47226;DHT22;32965;64.142;-21.912;2023-08-30T04:34:32;12.50;99.90
47226;DHT22;32965;64.142;-21.912;2023-08-30T04:36:58;12.50;99.90
47226;DHT22;32965;64.142;-21.912;2023-08-30T04:39:23;12.50;99.90
47226;DHT22;32965;64.142;-21.912;2023-08-30T04:41:49;12.50;99.90
47226;DHT22;32965;64.142;-21.912;2023-08-30T04:44:15;12.50;99.90
47226;DHT22;32965;64.142;-21.912;2023-08-30T04:46:42;12.50;99.90
47226;DHT22;32965;64.142;-21.912;2023-08-30T04:49:08;12.40;99.90
47226;DHT22;32965;64.142;-21.912;2023-08-30T04:51:34;12.40;99.90
47226;DHT22;32965;64.142;-21.912;2023-08-30T04:54:00;12.30;99.90
47226;DHT22;32965;64.142;-21.912;2023-08-30T04:56:26;12.30;99.90
47226;DHT22;32965;64.142;-21.912;2023-08-30T04:58:51;12.30;99.90
47226;DHT22;32965;64.142;-21.912;2023-08-30T05:01:17;12.30;99.90
47226;DHT22;32965;64.142;-21.912;2023-08-30T05:03:43;12.30;99.90
47226;DHT22;32965;64.142;-21.912;2023-08-30T05:06:09;12.30;99.90
47226;DHT22;32965;64.142;-21.912;2023-08-30T05:08:34;12.30;99.90
47226;DHT22;32965;64.142;-21.912;2023-08-30T05:11:00;12.30;99.90
47226;DHT22;32965;64.142;-21.912;2023-08-30T05:13:26;12.30;99.90
47226;DHT22;32965;64.142;-21.912;2023-08-30T05:15:52;12.40;99.90
47226;DHT22;32965;64.142;-21.912;2023-08-30T05:18:19;12.40;99.90
47226;DHT22;32965;64.142;-21.912;2023-08-30T05:20:45;12.40;99.90
47226;DHT22;32965;64.142;-21.912;2023-08-30T05:23:10;12.40;99.90
47226;DHT22;32965;64.142;-21.912;2023-08-30T05:25:36;12.40;99.90
47226;DHT22;32965;64.142;-21.912;2023-08-30T05:28:03;12.30;99.90
47226;DHT22;32965;64.142;-21.912;2023-08-30T05:30:29;12.40;99.90
47226;DHT22;32965;64.142;-21.912;2023-08-30T05:32:55;12.40;99.90
47226;DHT22;32965;64.142;-21.912;2023-08-30T05:35:20;12.40;99.90
47226;DHT22;32965;64.142;-21.912;2023-08-30T05:37:46;12.30;99.90
47226;DHT22;32965;64.142;-21.912;2023-08-30T05:40:13;12.30;99.90
47226;DHT22;32965;64.142;-21.912;2023-08-30T05:42:42;12.30;99.90
47226;DHT22;32965;64.142;-21.912;2023-08-30T05:45:08;12.30;99.90
47226;DHT22;32965;64.142;-21.912;2023-08-30T05:47:34;12.20;99.90
47226;DHT22;32965;64.142;-21.912;2023-08-30T05:50:00;12.20;99.90
47226;DHT22;32965;64.142;-21.912;2023-08-30T05:52:25;12.10;99.90
47226;DHT22;32965;64.142;-21.912;2023-08-30T05:54:51;12.10;99.90
47226;DHT22;32965;64.142;-21.912;2023-08-30T05:57:17;12.00;99.90
47226;DHT22;32965;64.142;-21.912;2023-08-30T05:59:43;12.00;99.90
47226;DHT22;32965;64.142;-21.912;2023-08-30T06:02:09;11.90;99.90
47226;DHT22;32965;64.142;-21.912;2023-08-30T06:04:36;11.90;99.90
47226;DHT22;32965;64.142;-21.912;2023-08-30T06:07:01;11.80;99.90
47226;DHT22;32965;64.142;-21.912;2023-08-30T06:09:28;11.70;99.90
47226;DHT22;32965;64.142;-21.912;2023-08-30T06:11:54;11.70;99.90
47226;DHT22;32965;64.142;-21.912;2023-08-30T06:14:20;11.60;99.90
47226;DHT22;32965;64.142;-21.912;2023-08-30T06:16:47;11.60;99.90
47226;DHT22;32965;64.142;-21.912;2023-08-30T06:19:14;11.60;99.90
47226;DHT22;32965;64.142;-21.912;2023-08-30T06:21:40;11.70;99.90
47226;DHT22;32965;64.142;-21.912;2023-08-30T06:24:06;11.70;99.90
47226;DHT22;32965;64.142;-21.912;2023-08-30T06:26:31;11.60;99.90
47226;DHT22;32965;64.142;-21.912;2023-08-30T06:28:58;11.70;99.90
47226;DHT22;32965;64.142;-21.912;2023-08-30T06:31:24;11.60;99.90
47226;DHT22;32965;64.142;-21.912;2023-08-30T06:33:50;11.60;99.90
47226;DHT22;32965;64.142;-21.912;2023-08-30T06:36:16;11.60;99.90
47226;DHT22;32965;64.142;-21.912;2023-08-30T06:38:43;11.60;99.90
47226;DHT22;32965;64.142;-21.912;2023-08-30T06:41:09;11.60;99.90
47226;DHT22;32965;64.142;-21.912;2023-08-30T06:43:34;11.50;99.90
47226;DHT22;32965;64.142;-21.912;2023-08-30T06:46:00;11.50;99.90
47226;DHT22;32965;64.142;-21.912;2023-08-30T06:48:26;11.60;99.90
47226;DHT22;32965;64.142;-21.912;2023-08-30T06:50:52;11.60;99.90
47226;DHT22;32965;64.142;-21.912;2023-08-30T06:53:18;11.60;99.90
47226;DHT22;32965;64.142;-21.912;2023-08-30T06:55:43;11.60;99.90
47226;DHT22;32965;64.142;-21.912;2023-08-30T06:58:09;11.70;99.90
47226;DHT22;32965;64.142;-21.912;2023-08-30T07:00:35;11.60;99.90
47226;DHT22;32965;64.142;-21.912;2023-08-30T07:03:01;11.70;99.90
47226;DHT22;32965;64.142;-21.912;2023-08-30T07:05:26;11.70;99.90
47226;DHT22;32965;64.142;-21.912;2023-08-30T07:07:52;11.70;99.90
47226;DHT22;32965;64.142;-21.912;2023-08-30T07:10:18;11.80;99.90
47226;DHT22;32965;64.142;-21.912;2023-08-30T07:12:44;11.80;99.90
47226;DHT22;32965;64.142;-21.912;2023-08-30T07:15:14;11.80;99.90
47226;DHT22;32965;64.142;-21.912;2023-08-30T07:17:39;11.90;99.90
47226;DHT22;32965;64.142;-21.912;2023-08-30T07:20:08;11.90;99.90
47226;DHT22;32965;64.142;-21.912;2023-08-30T07:22:34;11.90;99.90
47226;DHT22;32965;64.142;-21.912;2023-08-30T07:25:00;11.90;99.90
47226;DHT22;32965;64.142;-21.912;2023-08-30T07:27:26;11.90;99.90
47226;DHT22;32965;64.142;-21.912;2023-08-30T07:29:54;12.00;99.90
47226;DHT22;32965;64.142;-21.912;2023-08-30T07:32:23;12.00;99.90
47226;DHT22;32965;64.142;-21.912;2023-08-30T07:34:48;12.00;99.90
47226;DHT22;32965;64.142;-21.912;2023-08-30T07:37:19;12.00;99.90
47226;DHT22;32965;64.142;-21.912;2023-08-30T07:39:45;12.00;99.90
47226;DHT22;32965;64.142;-21.912;2023-08-30T07:42:11;12.10;99.90
47226;DHT22;32965;64.142;-21.912;2023-08-30T07:44:37;12.10;99.90
47226;DHT22;32965;64.142;-21.912;2023-08-30T07:47:03;12.10;99.90
47226;DHT22;32965;64.142;-21.912;2023-08-30T07:49:29;12.10;99.90
47226;DHT22;32965;64.142;-21.912;2023-08-30T07:51:54;12.20;99.90
47226;DHT22;32965;64.142;-21.912;2023-08-30T07:54:20;12.20;99.90
47226;DHT22;32965;64.142;-21.912;2023-08-30T07:56:46;12.20;99.90
47226;DHT22;32965;64.142;-21.912;2023-08-30T07:59:12;12.20;99.90
47226;DHT22;32965;64.142;-21.912;2023-08-30T08:01:38;12.30;99.90
47226;DHT22;32965;64.142;-21.912;2023-08-30T08:04:04;12.30;99.90
47226;DHT22;32965;64.142;-21.912;2023-08-30T08:06:30;12.30;99.90
47226;DHT22;32965;64.142;-21.912;2023-08-30T08:08:56;12.30;99.90
47226;DHT22;32965;64.142;-21.912;2023-08-30T08:11:22;12.30;99.90
47226;DHT22;32965;64.142;-21.912;2023-08-30T08:13:47;12.30;99.90
47226;DHT22;32965;64.142;-21.912;2023-08-30T08:16:13;12.40;99.90
47226;DHT22;32965;64.142;-21.912;2023-08-30T08:18:39;12.40;99.90
47226;DHT22;32965;64.142;-21.912;2023-08-30T08:21:05;12.50;99.90
47226;DHT22;32965;64.142;-21.912;2023-08-30T08:23:31;12.50;99.90
47226;DHT22;32965;64.142;-21.912;2023-08-30T08:26:00;12.60;99.90
47226;DHT22;32965;64.142;-21.912;2023-08-30T08:28:26;12.60;99.90
47226;DHT22;32965;64.142;-21.912;2023-08-30T08:30:52;12.60;99.90
47226;DHT22;32965;64.142;-21.912;2023-08-30T08:33:18;12.60;99.90
47226;DHT22;32965;64.142;-21.912;2023-08-30T08:35:44;12.60;99.90
47226;DHT22;32965;64.142;-21.912;2023-08-30T08:38:11;12.60;99.90
47226;DHT22;32965;64.142;-21.912;2023-08-30T08:40:37;12.60;99.90
47226;DHT22;32965;64.142;-21.912;2023-08-30T08:43:06;12.50;99.90
47226;DHT22;32965;64.142;-21.912;2023-08-30T08:45:35;12.40;99.90
47226;DHT22;32965;64.142;-21.912;2023-08-30T08:48:05;12.40;99.90
47226;DHT22;32965;64.142;-21.912;2023-08-30T08:50:32;12.40;99.90
47226;DHT22;32965;64.142;-21.912;2023-08-30T08:52:58;12.50;99.90
47226;DHT22;32965;64.142;-21.912;2023-08-30T08:55:26;12.50;99.90
47226;DHT22;32965;64.142;-21.912;2023-08-30T08:57:57;12.50;99.90
47226;DHT22;32965;64.142;-21.912;2023-08-30T09:00:23;12.60;99.90
47226;DHT22;32965;64.142;-21.912;2023-08-30T09:02:49;12.60;99.90
47226;DHT22;32965;64.142;-21.912;2023-08-30T09:05:18;12.70;99.90
47226;DHT22;32965;64.142;-21.912;2023-08-30T09:07:45;12.60;99.90
47226;DHT22;32965;64.142;-21.912;2023-08-30T09:10:11;12.60;99.90
47226;DHT22;32965;64.142;-21.912;2023-08-30T09:12:37;12.10;99.90
47226;DHT22;32965;64.142;-21.912;2023-08-30T09:15:03;12.60;99.90
47226;DHT22;32965;64.142;-21.912;2023-08-30T09:17:36;12.60;99.90
47226;DHT22;32965;64.142;-21.912;2023-08-30T09:20:07;12.70;99.90
47226;DHT22;32965;64.142;-21.912;2023-08-30T09:22:38;12.70;99.90
47226;DHT22;32965;64.142;-21.912;2023-08-30T09:25:04;12.70;99.90
47226;DHT22;32965;64.142;-21.912;2023-08-30T09:27:34;12.70;99.90
47226;DHT22;32965;64.142;-21.912;2023-08-30T09:29:59;12.70;99.90
47226;DHT22;32965;64.142;-21.912;2023-08-30T09:32:25;12.70;99.90
47226;DHT22;32965;64.142;-21.912;2023-08-30T09:34:51;12.70;99.90
47226;DHT22;32965;64.142;-21.912;2023-08-30T09:37:21;12.70;99.90
47226;DHT22;32965;64.142;-21.912;2023-08-30T09:39:50;12.70;99.90
47226;DHT22;32965;64.142;-21.912;2023-08-30T09:42:17;12.70;99.90
47226;DHT22;32965;64.142;-21.912;2023-08-30T09:44:45;12.70;99.90
47226;DHT22;32965;64.142;-21.912;2023-08-30T09:47:13;12.70;99.90
47226;DHT22;32965;64.142;-21.912;2023-08-30T09:49:44;12.70;99.90
47226;DHT22;32965;64.142;-21.912;2023-08-30T09:52:14;12.80;99.90
47226;DHT22;32965;64.142;-21.912;2023-08-30T09:54:40;12.80;99.90
47226;DHT22;32965;64.142;-21.912;2023-08-30T09:57:07;12.80;99.90
47226;DHT22;32965;64.142;-21.912;2023-08-30T09:59:33;12.70;99.90
47226;DHT22;32965;64.142;-21.912;2023-08-30T10:01:59;12.80;99.90
47226;DHT22;32965;64.142;-21.912;2023-08-30T10:04:28;12.90;99.90
47226;DHT22;32965;64.142;-21.912;2023-08-30T10:06:56;12.90;99.90
47226;DHT22;32965;64.142;-21.912;2023-08-30T10:09:24;12.80;99.90
47226;DHT22;32965;64.142;-21.912;2023-08-30T10:11:50;12.80;99.90
47226;DHT22;32965;64.142;-21.912;2023-08-30T10:14:17;12.70;99.90
47226;DHT22;32965;64.142;-21.912;2023-08-30T10:16:48;12.70;99.90
47226;DHT22;32965;64.142;-21.912;2023-08-30T10:19:17;12.60;99.90
47226;DHT22;32965;64.142;-21.912;2023-08-30T10:21:48;12.60;99.90
47226;DHT22;32965;64.142;-21.912;2023-08-30T10:24:19;12.50;99.90
47226;DHT22;32965;64.142;-21.912;2023-08-30T10:26:46;12.40;99.90
47226;DHT22;32965;64.142;-21.912;2023-08-30T10:29:14;12.40;99.90
47226;DHT22;32965;64.142;-21.912;2023-08-30T10:31:40;12.30;99.90
47226;DHT22;32965;64.142;-21.912;2023-08-30T10:34:15;12.30;99.90
47226;DHT22;32965;64.142;-21.912;2023-08-30T10:36:42;12.50;99.90
47226;DHT22;32965;64.142;-21.912;2023-08-30T10:39:12;12.60;99.90
47226;DHT22;32965;64.142;-21.912;2023-08-30T10:41:57;12.70;99.90
47226;DHT22;32965;64.142;-21.912;2023-08-30T10:44:23;12.90;99.90
47226;DHT22;32965;64.142;-21.912;2023-08-30T10:46:53;13.00;99.90
47226;DHT22;32965;64.142;-21.912;2023-08-30T10:49:21;13.10;99.90
47226;DHT22;32965;64.142;-21.912;2023-08-30T10:51:57;13.20;99.90
47226;DHT22;32965;64.142;-21.912;2023-08-30T10:54:24;13.30;99.90
47226;DHT22;32965;64.142;-21.912;2023-08-30T10:56:57;13.30;99.90
47226;DHT22;32965;64.142;-21.912;2023-08-30T10:59:25;13.40;99.90
47226;DHT22;32965;64.142;-21.912;2023-08-30T11:01:51;13.50;99.90
47226;DHT22;32965;64.142;-21.912;2023-08-30T11:04:18;13.60;99.90
47226;DHT22;32965;64.142;-21.912;2023-08-30T11:06:45;13.60;99.90
47226;DHT22;32965;64.142;-21.912;2023-08-30T11:09:21;13.70;99.90
47226;DHT22;32965;64.142;-21.912;2023-08-30T11:11:49;13.70;99.90
47226;DHT22;32965;64.142;-21.912;2023-08-30T11:14:16;13.70;99.90
47226;DHT22;32965;64.142;-21.912;2023-08-30T11:16:42;13.80;99.90
47226;DHT22;32965;64.142;-21.912;2023-08-30T11:19:09;13.80;99.90
47226;DHT22;32965;64.142;-21.912;2023-08-30T11:21:40;13.90;99.90
47226;DHT22;32965;64.142;-21.912;2023-08-30T11:24:08;13.90;99.90
47226;DHT22;32965;64.142;-21.912;2023-08-30T11:26:34;14.00;99.90
47226;DHT22;32965;64.142;-21.912;2023-08-30T11:29:09;14.00;99.90
47226;DHT22;32965;64.142;-21.912;2023-08-30T11:31:35;13.90;99.90
47226;DHT22;32965;64.142;-21.912;2023-08-30T11:34:01;14.10;99.90
47226;DHT22;32965;64.142;-21.912;2023-08-30T11:36:32;14.10;99.90
47226;DHT22;32965;64.142;-21.912;2023-08-30T11:39:00;14.10;99.90
47226;DHT22;32965;64.142;-21.912;2023-08-30T11:41:26;14.10;99.90
47226;DHT22;32965;64.142;-21.912;2023-08-30T11:43:53;14.10;99.90
47226;DHT22;32965;64.142;-21.912;2023-08-30T11:46:19;14.20;99.90
47226;DHT22;32965;64.142;-21.912;2023-08-30T11:48:47;14.30;99.90
47226;DHT22;32965;64.142;-21.912;2023-08-30T11:51:14;14.40;99.90
47226;DHT22;32965;64.142;-21.912;2023-08-30T11:53:40;14.50;99.90
47226;DHT22;32965;64.142;-21.912;2023-08-30T11:56:07;14.50;99.90
47226;DHT22;32965;64.142;-21.912;2023-08-30T11:58:36;14.60;99.60
47226;DHT22;32965;64.142;-21.912;2023-08-30T12:01:03;14.60;99.50
47226;DHT22;32965;64.142;-21.912;2023-08-30T12:03:29;14.60;99.80
47226;DHT22;32965;64.142;-21.912;2023-08-30T12:05:56;14.60;99.30
47226;DHT22;32965;64.142;-21.912;2023-08-30T12:08:26;14.70;99.10
47226;DHT22;32965;64.142;-21.912;2023-08-30T12:10:53;14.90;99.00
47226;DHT22;32965;64.142;-21.912;2023-08-30T12:15:49;15.20;98.20
47226;DHT22;32965;64.142;-21.912;2023-08-30T12:18:15;15.20;98.00
47226;DHT22;32965;64.142;-21.912;2023-08-30T12:20:51;15.20;97.90
47226;DHT22;32965;64.142;-21.912;2023-08-30T12:23:25;15.30;98.00
47226;DHT22;32965;64.142;-21.912;2023-08-30T12:28:28;15.30;97.60
47226;DHT22;32965;64.142;-21.912;2023-08-30T12:30:54;15.40;97.60
47226;DHT22;32965;64.142;-21.912;2023-08-30T12:33:20;15.40;97.50
47226;DHT22;32965;64.142;-21.912;2023-08-30T12:35:47;15.40;97.60
47226;DHT22;32965;64.142;-21.912;2023-08-30T12:38:13;15.50;97.10
47226;DHT22;32965;64.142;-21.912;2023-08-30T12:40:47;15.50;96.90
47226;DHT22;32965;64.142;-21.912;2023-08-30T12:43:14;15.60;96.80
47226;DHT22;32965;64.142;-21.912;2023-08-30T12:45:40;15.70;96.20
47226;DHT22;32965;64.142;-21.912;2023-08-30T12:48:08;15.70;95.70
47226;DHT22;32965;64.142;-21.912;2023-08-30T12:50:35;15.70;95.20
47226;DHT22;32965;64.142;-21.912;2023-08-30T12:53:05;15.70;94.90
47226;DHT22;32965;64.142;-21.912;2023-08-30T12:55:31;15.60;95.10
47226;DHT22;32965;64.142;-21.912;2023-08-30T12:57:57;15.50;95.30
47226;DHT22;32965;64.142;-21.912;2023-08-30T13:00:24;15.40;95.50
47226;DHT22;32965;64.142;-21.912;2023-08-30T13:02:50;15.40;95.50
47226;DHT22;32965;64.142;-21.912;2023-08-30T13:05:16;15.50;95.40
47226;DHT22;32965;64.142;-21.912;2023-08-30T13:07:42;15.60;95.10
47226;DHT22;32965;64.142;-21.912;2023-08-30T13:10:08;15.60;95.30
47226;DHT22;32965;64.142;-21.912;2023-08-30T13:12:35;15.70;95.10
47226;DHT22;32965;64.142;-21.912;2023-08-30T13:15:02;15.80;95.30
47226;DHT22;32965;64.142;-21.912;2023-08-30T13:17:27;15.80;94.80
47226;DHT22;32965;64.142;-21.912;2023-08-30T13:19:53;15.80;94.70
47226;DHT22;32965;64.142;-21.912;2023-08-30T13:22:19;15.80;95.00
47226;DHT22;32965;64.142;-21.912;2023-08-30T13:24:45;15.80;94.80
47226;DHT22;32965;64.142;-21.912;2023-08-30T13:27:12;15.80;94.30
47226;DHT22;32965;64.142;-21.912;2023-08-30T13:29:38;15.80;93.90
47226;DHT22;32965;64.142;-21.912;2023-08-30T13:32:04;15.80;94.30
47226;DHT22;32965;64.142;-21.912;2023-08-30T13:34:31;15.80;93.70
47226;DHT22;32965;64.142;-21.912;2023-08-30T13:36:57;15.80;94.00
47226;DHT22;32965;64.142;-21.912;2023-08-30T13:39:22;15.80;94.10
47226;DHT22;32965;64.142;-21.912;2023-08-30T13:41:48;16.00;94.20
47226;DHT22;32965;64.142;-21.912;2023-08-30T13:44:15;16.10;94.20
47226;DHT22;32965;64.142;-21.912;2023-08-30T13:46:41;16.20;94.30
47226;DHT22;32965;64.142;-21.912;2023-08-30T13:49:07;16.10;94.50
47226;DHT22;32965;64.142;-21.912;2023-08-30T13:51:33;16.20;95.00
47226;DHT22;32965;64.142;-21.912;2023-08-30T13:53:59;16.10;95.40
47226;DHT22;32965;64.142;-21.912;2023-08-30T13:56:24;16.20;95.60
47226;DHT22;32965;64.142;-21.912;2023-08-30T13:58:50;16.30;95.20
47226;DHT22;32965;64.142;-21.912;2023-08-30T14:01:16;16.30;95.00
47226;DHT22;32965;64.142;-21.912;2023-08-30T14:03:43;16.30;95.00
47226;DHT22;32965;64.142;-21.912;2023-08-30T14:06:09;16.30;95.00
47226;DHT22;32965;64.142;-21.912;2023-08-30T14:08:35;16.30;94.90
47226;DHT22;32965;64.142;-21.912;2023-08-30T14:11:01;16.30;94.50
47226;DHT22;32965;64.142;-21.912;2023-08-30T14:13:27;16.40;94.30
47226;DHT22;32965;64.142;-21.912;2023-08-30T14:16:01;16.50;93.80
47226;DHT22;32965;64.142;-21.912;2023-08-30T14:18:28;16.50;93.40
47226;DHT22;32965;64.142;-21.912;2023-08-30T14:20:57;16.60;93.30
47226;DHT22;32965;64.142;-21.912;2023-08-30T14:23:27;16.70;92.70
47226;DHT22;32965;64.142;-21.912;2023-08-30T14:28:24;16.70;92.00
47226;DHT22;32965;64.142;-21.912;2023-08-30T14:30:50;16.70;91.90
47226;DHT22;32965;64.142;-21.912;2023-08-30T14:33:15;16.70;91.80
47226;DHT22;32965;64.142;-21.912;2023-08-30T14:35:42;16.70;92.00
47226;DHT22;32965;64.142;-21.912;2023-08-30T14:38:08;16.70;91.60
47226;DHT22;32965;64.142;-21.912;2023-08-30T14:40:33;16.60;91.50
47226;DHT22;32965;64.142;-21.912;2023-08-30T14:42:59;16.60;91.80
47226;DHT22;32965;64.142;-21.912;2023-08-30T14:45:25;16.60;92.10
47226;DHT22;32965;64.142;-21.912;2023-08-30T14:47:51;16.60;91.90
47226;DHT22;32965;64.142;-21.912;2023-08-30T14:50:17;16.60;91.90
47226;DHT22;32965;64.142;-21.912;2023-08-30T14:52:43;16.80;91.80
47226;DHT22;32965;64.142;-21.912;2023-08-30T14:55:09;16.90;90.90
47226;DHT22;32965;64.142;-21.912;2023-08-30T14:57:34;17.00;90.70
47226;DHT22;32965;64.142;-21.912;2023-08-30T15:00:00;16.90;90.60
47226;DHT22;32965;64.142;-21.912;2023-08-30T15:02:26;16.80;90.50
47226;DHT22;32965;64.142;-21.912;2023-08-30T15:04:53;16.70;90.70
47226;DHT22;32965;64.142;-21.912;2023-08-30T15:07:19;16.50;91.20
47226;DHT22;32965;64.142;-21.912;2023-08-30T15:09:45;16.40;91.80
47226;DHT22;32965;64.142;-21.912;2023-08-30T15:12:11;16.40;92.30